Time;durP1;ratioP1;P1;durP2;ratioP2;P2;SDS_P1;SDS_P2;PMS_P1;PMS_P2;Temp;Humidity;BMP_temperature;BMP_pressure;BME280_temperature;BME280_humidity;BME280_pressure;Samples;Min_cycle;Max_cycle;Signal;HPM_P1;HPM_P2
2023/09/08 00:02:12;;;;;;;3.33;2.85;;;27.40;47.10;;;;;;4971566;28;20051;-67
2023/09/08 00:04:38;;;;;;;4.28;2.70;;;27.40;47.10;;;;;;4970062;28;20042;-68
2023/09/08 00:07:04;;;;;;;4.55;2.85;;;27.40;47.10;;;;;;4971652;28;20038;-68
2023/09/08 00:09:31;;;;;;;6.88;3.20;;;27.50;47.20;;;;;;4970059;28;20382;-69
2023/09/08 00:11:57;;;;;;;7.47;3.10;;;27.50;47.20;;;;;;4977813;28;20034;-69
2023/09/08 00:14:23;;;;;;;4.15;3.05;;;27.50;47.20;;;;;;4986284;28;20050;-68
2023/09/08 00:16:54;;;;;;;2.65;2.33;;;27.60;47.20;;;;;;5079525;28;20085;-68
2023/09/08 00:19:21;;;;;;;3.17;2.70;;;27.50;47.30;;;;;;4970459;28;20035;-69
2023/09/08 00:21:49;;;;;;;3.90;2.70;;;27.50;47.30;;;;;;4971148;28;20054;-68
2023/09/08 00:24:16;;;;;;;4.65;2.67;;;27.40;47.30;;;;;;4971346;28;20077;-68
2023/09/08 00:26:42;;;;;;;3.90;2.58;;;27.60;47.30;;;;;;4979919;28;20034;-68
2023/09/08 00:29:08;;;;;;;5.20;2.70;;;27.60;47.30;;;;;;4984641;28;20015;-68
2023/09/08 00:31:34;;;;;;;4.55;2.90;;;27.50;47.40;;;;;;4969614;28;20372;-68
2023/09/08 00:34:00;;;;;;;6.05;3.03;;;27.50;47.40;;;;;;4971061;28;20022;-69
2023/09/08 00:36:26;;;;;;;4.45;3.10;;;27.70;47.40;;;;;;4971113;28;20042;-69
2023/09/08 00:38:53;;;;;;;6.63;2.85;;;27.50;47.50;;;;;;4971035;28;20043;-68
2023/09/08 00:41:19;;;;;;;3.42;2.90;;;27.60;47.50;;;;;;4970843;28;20031;-68
2023/09/08 00:43:45;;;;;;;2.78;2.30;;;27.50;47.50;;;;;;4972562;28;20031;-68
2023/09/08 00:46:12;;;;;;;3.15;2.75;;;27.60;47.50;;;;;;4971215;28;20042;-69
2023/09/08 00:48:38;;;;;;;9.00;3.03;;;27.70;47.50;;;;;;4968573;28;20103;-69
2023/09/08 00:51:09;;;;;;;7.25;2.65;;;27.60;47.50;;;;;;4970930;28;20030;-68
2023/09/08 00:53:36;;;;;;;6.40;3.13;;;27.70;47.50;;;;;;4970646;28;20056;-69
2023/09/08 00:56:04;;;;;;;5.47;3.10;;;27.60;47.60;;;;;;4970551;28;20111;-69
2023/09/08 00:58:31;;;;;;;5.50;2.80;;;27.60;47.60;;;;;;4972887;28;20039;-68
2023/09/08 01:00:57;;;;;;;3.30;2.85;;;27.60;47.60;;;;;;4970684;28;20050;-67
2023/09/08 01:03:24;;;;;;;4.90;3.40;;;27.50;47.60;;;;;;4969176;28;20062;-68
2023/09/08 01:05:51;;;;;;;3.92;2.83;;;27.60;47.60;;;;;;5001887;28;20060;-68
2023/09/08 01:08:18;;;;;;;3.00;2.70;;;27.50;47.60;;;;;;4970816;28;20046;-68
2023/09/08 01:10:45;;;;;;;6.85;2.83;;;27.50;47.60;;;;;;4969143;28;20039;-68
2023/09/08 01:13:11;;;;;;;7.50;2.85;;;27.60;47.60;;;;;;4970385;28;20071;-69
2023/09/08 01:15:38;;;;;;;5.50;2.90;;;27.50;47.60;;;;;;4970529;28;20027;-68
2023/09/08 01:18:04;;;;;;;4.75;3.05;;;27.60;47.70;;;;;;4970611;28;20067;-69
2023/09/08 01:20:36;;;;;;;5.22;2.88;;;27.40;47.70;;;;;;4970324;28;20043;-69
2023/09/08 01:23:21;;;;;;;4.63;2.92;;;27.50;47.80;;;;;;4970282;28;20030;-70
2023/09/08 01:25:54;;;;;;;3.75;2.55;;;27.40;47.80;;;;;;4969143;28;20057;-69
2023/09/08 01:28:23;;;;;;;4.20;2.67;;;27.50;47.80;;;;;;4983534;28;20034;-69
2023/09/08 01:30:51;;;;;;;4.45;3.08;;;27.60;47.80;;;;;;5009102;28;20497;-68
2023/09/08 01:33:18;;;;;;;2.80;2.50;;;27.50;47.90;;;;;;5008949;28;20072;-68
2023/09/08 01:35:45;;;;;;;5.68;2.97;;;27.50;47.90;;;;;;5009021;28;20038;-68
2023/09/08 01:38:11;;;;;;;4.82;2.83;;;27.60;47.90;;;;;;5009214;28;20042;-68
2023/09/08 01:40:46;;;;;;;4.22;2.67;;;27.50;47.90;;;;;;5009306;28;20033;-69
2023/09/08 01:43:13;;;;;;;4.55;3.30;;;27.50;47.90;;;;;;4977562;28;20512;-68
2023/09/08 01:45:39;;;;;;;7.10;2.58;;;27.60;48.00;;;;;;4969786;28;20034;-69
2023/09/08 01:48:06;;;;;;;3.17;2.60;;;27.60;48.00;;;;;;4970262;28;20042;-69
2023/09/08 01:50:32;;;;;;;3.97;3.10;;;27.60;48.00;;;;;;4973699;28;20022;-69
2023/09/08 01:52:58;;;;;;;6.70;2.92;;;27.50;48.00;;;;;;4987919;28;20030;-69
2023/09/08 01:55:45;;;;;;;6.00;3.20;;;27.40;48.00;;;;;;4985460;28;20081;-69
2023/09/08 01:58:12;;;;;;;3.67;2.88;;;27.60;48.00;;;;;;4968351;28;20407;-69
2023/09/08 02:00:40;;;;;;;6.50;2.65;;;27.50;47.90;;;;;;5067935;28;20456;-69
2023/09/08 02:03:06;;;;;;;3.28;2.90;;;27.50;48.00;;;;;;4969839;28;20487;-66
2023/09/08 02:05:38;;;;;;;6.38;2.83;;;27.40;48.00;;;;;;5069823;28;20047;-69
2023/09/08 02:08:05;;;;;;;3.92;2.72;;;27.40;48.00;;;;;;4969782;28;20030;-69
2023/09/08 02:10:32;;;;;;;5.93;2.78;;;27.50;48.00;;;;;;4968449;28;20034;-69
2023/09/08 02:12:58;;;;;;;4.10;2.53;;;27.40;48.00;;;;;;4968264;28;20030;-69
2023/09/08 02:15:25;;;;;;;4.47;2.35;;;27.50;48.00;;;;;;5061071;28;20028;-69
2023/09/08 02:17:56;;;;;;;4.10;2.47;;;27.50;48.00;;;;;;5105502;28;20032;-69
2023/09/08 02:20:23;;;;;;;6.45;2.67;;;27.30;48.00;;;;;;5089746;28;20047;-68
2023/09/08 02:22:54;;;;;;;4.07;2.85;;;27.30;48.00;;;;;;5090994;28;20081;-68
2023/09/08 02:25:24;;;;;;;5.45;3.05;;;27.40;48.10;;;;;;5056557;28;20134;-69
2023/09/08 02:27:53;;;;;;;3.92;2.92;;;27.40;48.20;;;;;;4969699;28;20066;-68
2023/09/08 02:30:19;;;;;;;4.25;2.38;;;27.40;48.20;;;;;;4968530;28;20069;-68
2023/09/08 02:32:46;;;;;;;3.10;2.30;;;27.40;48.20;;;;;;4969264;28;20371;-69
2023/09/08 02:35:13;;;;;;;4.07;2.70;;;27.50;48.20;;;;;;5069738;28;20379;-69
2023/09/08 02:37:40;;;;;;;5.93;2.42;;;27.40;48.20;;;;;;4969204;28;20039;-69
2023/09/08 02:40:07;;;;;;;4.10;2.53;;;27.40;48.30;;;;;;5052406;28;20457;-67
2023/09/08 02:42:35;;;;;;;3.47;2.05;;;27.50;48.30;;;;;;4969755;28;20027;-67
2023/09/08 02:45:01;;;;;;;5.43;2.67;;;27.40;48.30;;;;;;4971596;28;20031;-69
2023/09/08 02:47:30;;;;;;;2.97;2.08;;;27.40;48.30;;;;;;4971860;28;20126;-68
2023/09/08 02:49:59;;;;;;;3.40;2.15;;;27.40;48.30;;;;;;5073198;28;20042;-69
2023/09/08 02:52:25;;;;;;;3.38;2.40;;;27.40;48.30;;;;;;4971326;28;20080;-68
2023/09/08 02:55:11;;;;;;;4.65;2.30;;;27.40;48.30;;;;;;4940763;28;20128;-68
2023/09/08 02:57:38;;;;;;;5.35;2.47;;;27.50;48.20;;;;;;4969770;28;20039;-68
2023/09/08 03:00:07;;;;;;;5.80;2.60;;;27.40;48.20;;;;;;4969950;28;20074;-69
2023/09/08 03:02:37;;;;;;;3.25;2.45;;;27.40;48.20;;;;;;4985983;28;20042;-68
2023/09/08 03:05:03;;;;;;;6.65;2.70;;;27.40;48.20;;;;;;4969863;28;20105;-68
2023/09/08 03:07:30;;;;;;;4.43;2.90;;;27.40;48.30;;;;;;4953974;28;20055;-68
2023/09/08 03:09:56;;;;;;;4.75;2.70;;;27.40;48.30;;;;;;4985218;28;20062;-68
2023/09/08 03:12:22;;;;;;;6.65;3.15;;;27.30;48.30;;;;;;4953653;28;20076;-69
2023/09/08 03:14:49;;;;;;;7.47;3.25;;;27.30;48.30;;;;;;4969986;28;20104;-68
2023/09/08 03:17:15;;;;;;;3.10;2.63;;;27.30;48.30;;;;;;4969757;28;20376;-68
2023/09/08 03:19:46;;;;;;;3.20;2.65;;;27.40;48.30;;;;;;4953345;28;20070;-67
2023/09/08 03:22:12;;;;;;;6.05;2.67;;;27.30;48.30;;;;;;4969409;28;20103;-69
2023/09/08 03:24:38;;;;;;;3.22;2.63;;;27.30;48.40;;;;;;4983607;28;20043;-69
2023/09/08 03:27:04;;;;;;;3.03;2.50;;;27.40;48.40;;;;;;4969480;28;20615;-68
2023/09/08 03:29:30;;;;;;;4.85;2.33;;;27.30;48.40;;;;;;4985826;28;20402;-68
2023/09/08 03:31:59;;;;;;;4.43;2.92;;;27.20;48.40;;;;;;4957992;28;20525;-68
2023/09/08 03:34:25;;;;;;;2.55;2.28;;;27.30;48.50;;;;;;4970817;28;20399;-68
2023/09/08 03:36:53;;;;;;;4.35;3.13;;;27.30;48.40;;;;;;4996974;28;20029;-68
2023/09/08 03:39:20;;;;;;;3.22;2.70;;;27.30;48.40;;;;;;5003357;28;20041;-68
2023/09/08 03:41:47;;;;;;;5.25;2.65;;;27.30;48.50;;;;;;4990253;28;20034;-69
2023/09/08 03:44:16;;;;;;;4.20;2.53;;;27.20;48.50;;;;;;4991256;28;20109;-68
2023/09/08 03:46:42;;;;;;;3.90;2.42;;;27.30;48.40;;;;;;4991046;28;20046;-69
2023/09/08 03:49:08;;;;;;;4.30;2.20;;;27.30;48.50;;;;;;4991449;28;20038;-69
2023/09/08 03:51:38;;;;;;;4.10;2.75;;;27.40;48.50;;;;;;4989839;28;20363;-68
2023/09/08 03:54:04;;;;;;;3.97;3.05;;;27.40;48.40;;;;;;4987676;28;20030;-68
2023/09/08 03:56:32;;;;;;;5.20;2.92;;;27.30;48.40;;;;;;4978840;28;20050;-68
2023/09/08 03:58:58;;;;;;;4.38;3.13;;;27.30;48.40;;;;;;4991380;28;20147;-68
2023/09/08 04:01:25;;;;;;;4.35;2.55;;;27.30;48.40;;;;;;4991029;28;20623;-69
2023/09/08 04:03:51;;;;;;;7.50;3.75;;;27.30;48.40;;;;;;4973632;28;20429;-68
2023/09/08 04:06:28;;;;;;;6.82;2.80;;;27.20;48.40;;;;;;4991396;28;20062;-68
2023/09/08 04:08:56;;;;;;;3.03;2.35;;;27.20;48.40;;;;;;4987611;28;20091;-69
2023/09/08 04:11:22;;;;;;;8.00;2.40;;;27.30;48.50;;;;;;4981452;28;20050;-69
2023/09/08 04:13:48;;;;;;;8.38;3.38;;;27.30;48.40;;;;;;4988481;28;20046;-68
2023/09/08 04:16:15;;;;;;;4.03;2.70;;;27.20;48.50;;;;;;4972116;28;20042;-69
2023/09/08 04:18:41;;;;;;;4.03;2.35;;;27.20;48.50;;;;;;4972472;28;20042;-69
2023/09/08 04:21:07;;;;;;;3.72;2.60;;;27.30;48.50;;;;;;4988631;28;20072;-68
2023/09/08 04:23:35;;;;;;;3.67;2.13;;;27.20;48.50;;;;;;4968864;28;20620;-69
2023/09/08 04:26:04;;;;;;;4.75;2.50;;;27.20;48.60;;;;;;4969378;28;20079;-68
2023/09/08 04:28:30;;;;;;;7.05;2.65;;;27.20;48.50;;;;;;5002532;28;20051;-68
2023/09/08 04:30:57;;;;;;;6.70;2.38;;;27.20;48.50;;;;;;4971893;28;20039;-68
2023/09/08 04:33:24;;;;;;;4.57;2.72;;;27.30;48.60;;;;;;4971520;28;20104;-68
2023/09/08 04:35:50;;;;;;;4.05;3.08;;;27.30;48.60;;;;;;4971595;28;20129;-69
2023/09/08 04:38:16;;;;;;;6.35;3.83;;;27.30;48.60;;;;;;4970263;28;20117;-67
2023/09/08 04:40:46;;;;;;;6.43;3.58;;;27.20;48.60;;;;;;4971066;28;20046;-69
2023/09/08 04:43:12;;;;;;;8.60;3.53;;;27.20;48.60;;;;;;4987494;28;20055;-69
2023/09/08 04:45:39;;;;;;;4.82;3.95;;;27.30;48.60;;;;;;4987826;28;20050;-68
2023/09/08 04:48:06;;;;;;;9.45;4.30;;;27.20;48.60;;;;;;4971830;28;20055;-68
2023/09/08 04:50:32;;;;;;;7.10;4.10;;;27.40;48.60;;;;;;4971812;28;20043;-68
2023/09/08 04:52:59;;;;;;;11.93;4.65;;;27.20;48.60;;;;;;4987412;28;20043;-68
2023/09/08 04:55:26;;;;;;;8.57;4.32;;;27.20;48.60;;;;;;4986248;28;20058;-68
2023/09/08 04:57:58;;;;;;;7.55;4.25;;;27.30;48.50;;;;;;4987482;28;20224;-69
2023/09/08 05:00:25;;;;;;;9.30;4.20;;;27.30;48.50;;;;;;5037612;28;20034;-68
2023/09/08 05:02:51;;;;;;;5.93;3.75;;;27.20;48.60;;;;;;4987281;28;20575;-68
2023/09/08 05:05:17;;;;;;;9.48;4.10;;;27.20;48.50;;;;;;4987144;28;20426;-68
2023/09/08 05:07:45;;;;;;;11.20;4.45;;;27.30;48.50;;;;;;4971104;28;20061;-68
2023/09/08 05:10:19;;;;;;;5.55;4.20;;;27.10;48.50;;;;;;4985667;28;20034;-68
2023/09/08 05:12:45;;;;;;;6.47;4.03;;;27.20;48.50;;;;;;4987199;28;20030;-69
2023/09/08 05:15:15;;;;;;;6.07;4.40;;;27.20;48.50;;;;;;4989426;28;20046;-68
2023/09/08 05:17:44;;;;;;;9.30;4.55;;;27.30;48.50;;;;;;4988507;28;20421;-69
2023/09/08 05:20:31;;;;;;;6.93;4.80;;;27.20;48.60;;;;;;4989556;28;20058;-68
2023/09/08 05:22:57;;;;;;;6.78;4.13;;;27.20;48.60;;;;;;4988457;28;20030;-69
2023/09/08 05:25:23;;;;;;;8.43;4.25;;;27.20;48.60;;;;;;4971479;28;20041;-67
2023/09/08 05:27:50;;;;;;;8.73;4.18;;;27.20;48.60;;;;;;4969139;28;20100;-69
2023/09/08 05:30:17;;;;;;;9.30;4.68;;;27.20;48.70;;;;;;5070244;28;20467;-68
2023/09/08 05:32:43;;;;;;;9.93;4.25;;;27.20;48.70;;;;;;5036272;28;20028;-68
2023/09/08 05:38:08;;;;;;;1.50;1.40;;;27.10;48.30;;;;;;5079255;28;20478;-70
2023/09/08 05:40:35;;;;;;;1.55;1.45;;;27.30;47.70;;;;;;4984720;28;20050;-69
2023/09/08 05:43:02;;;;;;;1.38;0.98;;;27.30;47.40;;;;;;4968855;28;20031;-71
2023/09/08 05:45:30;;;;;;;1.50;1.40;;;27.40;49.70;;;;;;4973067;28;20054;-71
2023/09/08 05:47:57;;;;;;;1.50;1.40;;;27.40;51.70;;;;;;5007880;28;20113;-71
2023/09/08 05:50:23;;;;;;;3.00;1.58;;;27.60;50.90;;;;;;5007838;28;20042;-70
2023/09/08 05:52:51;;;;;;;2.60;1.70;;;27.70;50.90;;;;;;5001581;28;20035;-70
2023/09/08 05:55:18;;;;;;;1.65;1.55;;;27.70;49.50;;;;;;4968324;28;20035;-70
2023/09/08 05:57:44;;;;;;;3.47;2.55;;;27.70;50.00;;;;;;4969874;28;20130;-71
2023/09/08 06:00:12;;;;;;;9.30;4.32;;;27.70;49.50;;;;;;5053327;28;20483;-71
2023/09/08 06:02:46;;;;;;;4.45;3.35;;;27.80;50.70;;;;;;4968627;28;20038;-68
2023/09/08 06:05:14;;;;;;;4.70;3.50;;;27.90;49.00;;;;;;4969795;28;20058;-67
2023/09/08 06:07:40;;;;;;;4.47;2.60;;;27.80;46.60;;;;;;4987531;28;20512;-68
2023/09/08 06:10:08;;;;;;;4.25;2.65;;;27.80;45.10;;;;;;5019635;28;20042;-69
2023/09/08 06:12:35;;;;;;;4.95;3.08;;;27.80;45.60;;;;;;4989567;28;20596;-69
2023/09/08 06:15:05;;;;;;;4.07;2.67;;;27.70;45.20;;;;;;4989196;28;20049;-70
2023/09/08 06:17:33;;;;;;;2.92;2.55;;;27.80;43.90;;;;;;4988732;28;20050;-68
2023/09/08 06:19:59;;;;;;;4.88;3.15;;;27.70;43.40;;;;;;5000265;28;20052;-69
2023/09/08 06:22:26;;;;;;;6.97;3.35;;;27.60;42.40;;;;;;4991450;28;20095;-69
2023/09/08 06:24:52;;;;;;;4.35;3.63;;;27.50;41.30;;;;;;4986185;28;20105;-69
2023/09/08 06:27:19;;;;;;;3.55;2.60;;;27.70;43.40;;;;;;4989386;28;20120;-69
2023/09/08 06:29:45;;;;;;;3.88;3.13;;;27.60;43.10;;;;;;4989370;28;20069;-69
2023/09/08 06:32:14;;;;;;;4.78;2.38;;;27.50;42.90;;;;;;4987910;28;20034;-68
2023/09/08 06:34:43;;;;;;;3.05;2.75;;;27.50;42.70;;;;;;4991577;28;20034;-69
2023/09/08 06:37:10;;;;;;;2.95;2.60;;;27.70;42.60;;;;;;5001019;28;20026;-69
2023/09/08 06:39:36;;;;;;;5.72;2.20;;;27.50;42.60;;;;;;4983181;28;20078;-68
2023/09/08 06:42:04;;;;;;;3.80;2.55;;;27.50;42.70;;;;;;4987602;28;20049;-69
2023/09/08 06:44:30;;;;;;;3.47;2.33;;;27.70;42.70;;;;;;4991814;28;20126;-70
2023/09/08 06:46:57;;;;;;;2.75;2.53;;;27.60;42.80;;;;;;4987480;28;20494;-70
2023/09/08 06:49:25;;;;;;;6.88;2.50;;;27.60;42.80;;;;;;4978467;28;20046;-69
2023/09/08 06:51:51;;;;;;;6.80;2.72;;;27.60;43.60;;;;;;4985753;28;20045;-69
2023/09/08 06:54:17;;;;;;;6.63;3.33;;;27.60;43.50;;;;;;4985695;28;20575;-70
2023/09/08 06:56:44;;;;;;;15.07;4.72;;;27.60;43.70;;;;;;4985220;28;20068;-69
2023/09/08 06:59:11;;;;;;;6.25;2.92;;;27.60;44.40;;;;;;4989344;28;20470;-68
2023/09/08 07:01:37;;;;;;;5.50;3.22;;;27.60;44.50;;;;;;5002713;28;20062;-69
2023/09/08 07:04:04;;;;;;;8.70;3.30;;;27.80;42.80;;;;;;4988650;28;20469;-69
2023/09/08 07:06:31;;;;;;;18.17;3.63;;;27.80;41.80;;;;;;5005116;28;20053;-69
2023/09/08 07:08:59;;;;;;;3.45;2.53;;;27.80;41.30;;;;;;4969808;28;20540;-69
2023/09/08 07:11:26;;;;;;;6.55;2.55;;;27.90;41.40;;;;;;4985975;28;20195;-71
2023/09/08 07:13:52;;;;;;;5.07;2.97;;;27.90;41.10;;;;;;4953476;28;20038;-69
2023/09/08 07:16:19;;;;;;;7.88;2.90;;;27.90;39.80;;;;;;4969846;28;20137;-70
2023/09/08 07:18:45;;;;;;;5.18;2.30;;;27.70;40.40;;;;;;4985853;28;20486;-70
2023/09/08 07:21:11;;;;;;;3.60;2.83;;;27.90;40.20;;;;;;4953374;28;20062;-69
2023/09/08 07:23:38;;;;;;;4.53;2.70;;;27.80;40.20;;;;;;4916674;28;20578;-70
2023/09/08 07:26:06;;;;;;;5.68;2.75;;;27.90;39.90;;;;;;4944033;28;20048;-71
2023/09/08 07:28:34;;;;;;;2.47;2.28;;;27.90;39.80;;;;;;4913757;28;20056;-68
2023/09/08 07:31:04;;;;;;;3.92;2.50;;;27.70;39.50;;;;;;4996078;28;20039;-71
2023/09/08 07:33:41;;;;;;;9.65;2.50;;;27.90;39.30;;;;;;4950182;28;20051;-70
2023/09/08 07:36:09;;;;;;;4.95;2.30;;;27.80;39.10;;;;;;4950708;28;20423;-70
2023/09/08 07:38:36;;;;;;;2.67;2.38;;;28.00;39.30;;;;;;4997500;28;20100;-70
2023/09/08 07:41:03;;;;;;;7.57;2.63;;;27.80;38.40;;;;;;5074656;28;20050;-70
2023/09/08 07:43:29;;;;;;;8.00;2.70;;;27.80;38.40;;;;;;5054814;28;20078;-69
2023/09/08 07:45:55;;;;;;;3.67;2.00;;;27.70;38.70;;;;;;4988830;28;20064;-70
2023/09/08 07:48:24;;;;;;;4.75;2.03;;;27.70;37.90;;;;;;4988701;28;20125;-69
2023/09/08 07:50:51;;;;;;;2.70;2.05;;;27.60;37.20;;;;;;4988031;28;20065;-68
2023/09/08 07:53:17;;;;;;;3.17;2.15;;;27.70;37.10;;;;;;4988424;28;20053;-69
2023/09/08 07:55:43;;;;;;;2.80;1.65;;;27.70;36.70;;;;;;5045011;28;20052;-68
2023/09/08 07:58:10;;;;;;;2.88;1.80;;;27.70;36.60;;;;;;5047908;28;20065;-71
2023/09/08 08:01:10;;;;;;;1.30;1.20;;;27.70;34.30;;;;;;5047941;27;20060;-71
2023/09/08 08:03:42;;;;;;;1.48;1.13;;;27.50;34.30;;;;;;5041740;28;20144;-70
2023/09/08 08:06:08;;;;;;;1.80;1.13;;;27.50;34.90;;;;;;5004433;28;20104;-70
2023/09/08 08:08:38;;;;;;;1.48;1.27;;;27.60;35.40;;;;;;4991152;28;20057;-69
2023/09/08 08:11:34;;;;;;;1.50;1.33;;;27.40;35.00;;;;;;4982323;28;20034;-71
2023/09/08 08:14:00;;;;;;;2.88;1.45;;;27.60;34.40;;;;;;4973488;28;20026;-71
2023/09/08 08:16:28;;;;;;;1.58;1.35;;;27.50;33.80;;;;;;5022591;28;20036;-72
2023/09/08 08:19:14;;;;;;;1.20;1.10;;;27.50;34.40;;;;;;4968639;28;20117;-70
2023/09/08 08:21:44;;;;;;;3.55;1.33;;;27.50;34.30;;;;;;4974192;28;20100;-73
2023/09/08 08:24:13;;;;;;;1.42;1.25;;;27.50;34.60;;;;;;5002183;28;20138;-70
2023/09/08 08:26:40;;;;;;;2.00;1.13;;;27.40;34.50;;;;;;4972124;28;20117;-68
2023/09/08 08:29:06;;;;;;;1.58;1.40;;;27.50;34.70;;;;;;4987710;28;20046;-71
2023/09/08 08:31:33;;;;;;;2.03;1.15;;;27.50;34.80;;;;;;4987771;28;20109;-70
2023/09/08 08:33:59;;;;;;;2.53;1.40;;;27.50;34.70;;;;;;4983745;28;20108;-71
2023/09/08 08:36:25;;;;;;;1.63;1.05;;;27.50;34.80;;;;;;4968782;28;20043;-70
2023/09/08 08:38:51;;;;;;;1.48;0.88;;;27.50;34.70;;;;;;4985762;28;20846;-71
2023/09/08 08:41:17;;;;;;;1.25;1.15;;;27.50;34.80;;;;;;4987312;28;20048;-70
2023/09/08 08:43:45;;;;;;;1.90;1.20;;;27.50;34.70;;;;;;4955686;28;20185;-70
2023/09/08 08:46:48;;;;;;;2.33;1.10;;;27.40;34.70;;;;;;4988350;28;20153;-70
2023/09/08 08:49:16;;;;;;;1.73;1.33;;;27.50;34.70;;;;;;4978525;28;20051;-70
2023/09/08 08:51:45;;;;;;;1.85;1.10;;;27.50;34.90;;;;;;4971161;28;20343;-70
2023/09/08 08:54:15;;;;;;;2.25;1.35;;;27.40;35.10;;;;;;4970572;28;20022;-70
2023/09/08 08:56:42;;;;;;;2.78;1.50;;;27.40;35.30;;;;;;4970800;28;20362;-70
2023/09/08 08:59:11;;;;;;;1.63;0.93;;;27.40;35.50;;;;;;4970695;28;20478;-70
2023/09/08 09:01:41;;;;;;;1.45;1.35;;;27.40;35.80;;;;;;4970678;28;20039;-70
2023/09/08 09:04:08;;;;;;;3.40;1.50;;;27.40;36.00;;;;;;4970925;28;20038;-70
2023/09/08 09:06:35;;;;;;;1.45;1.35;;;27.30;36.20;;;;;;4970892;28;20031;-70
2023/09/08 09:09:21;;;;;;;2.33;1.45;;;27.30;36.50;;;;;;4970671;28;20038;-70
2023/09/08 09:11:47;;;;;;;1.63;1.20;;;27.30;36.70;;;;;;4970738;28;20031;-70
2023/09/08 09:14:17;;;;;;;3.83;1.35;;;27.20;36.80;;;;;;4970051;28;20395;-70
2023/09/08 09:16:44;;;;;;;1.38;1.27;;;27.20;36.90;;;;;;4970399;28;20442;-70
2023/09/08 09:19:25;;;;;;;3.30;1.10;;;27.30;36.90;;;;;;4979082;28;20030;-70
2023/09/08 09:21:59;;;;;;;5.05;1.27;;;27.20;37.10;;;;;;4991375;28;20045;-70
2023/09/08 09:24:33;;;;;;;1.98;1.33;;;27.10;37.20;;;;;;4989438;28;20035;-70
2023/09/08 09:27:01;;;;;;;1.20;1.02;;;27.10;37.30;;;;;;4989764;28;20042;-70
2023/09/08 09:29:28;;;;;;;1.42;1.33;;;27.30;37.30;;;;;;4989647;28;20034;-70
2023/09/08 09:32:01;;;;;;;1.42;1.30;;;27.20;37.40;;;;;;4990429;28;20041;-70
2023/09/08 09:34:28;;;;;;;2.00;1.20;;;27.20;37.50;;;;;;5019904;28;20047;-70
2023/09/08 09:36:54;;;;;;;1.33;0.98;;;27.20;37.50;;;;;;5043380;28;20046;-70
2023/09/08 09:39:23;;;;;;;2.05;0.93;;;27.20;37.70;;;;;;4996713;28;20072;-70
2023/09/08 09:41:56;;;;;;;1.95;1.20;;;27.20;37.80;;;;;;5058926;28;20124;-70
2023/09/08 09:44:24;;;;;;;1.48;1.20;;;27.30;37.90;;;;;;5090328;28;20040;-71
2023/09/08 09:46:53;;;;;;;1.10;0.93;;;27.20;37.90;;;;;;5091491;28;20507;-70
2023/09/08 09:49:46;;;;;;;1.98;1.00;;;27.30;38.00;;;;;;4993197;28;20029;-70
2023/09/08 09:52:25;;;;;;;2.95;1.52;;;27.20;38.10;;;;;;5051117;28;20032;-70
2023/09/08 09:55:41;;;;;;;2.15;1.40;;;27.20;38.20;;;;;;5043258;28;20119;-70
2023/09/08 09:58:41;;;;;;;2.88;1.83;;;27.20;38.30;;;;;;5068416;28;20045;-70
2023/09/08 10:01:36;;;;;;;2.38;1.05;;;27.20;38.50;;;;;;5068297;28;20131;-70
2023/09/08 10:04:15;;;;;;;1.98;1.45;;;27.10;38.60;;;;;;4958207;28;20078;-70
2023/09/08 10:07:12;;;;;;;1.95;1.42;;;27.20;38.70;;;;;;4967963;28;20036;-70
2023/09/08 10:09:58;;;;;;;1.00;0.95;;;27.10;38.80;;;;;;5018850;28;20191;-72
2023/09/08 10:12:28;;;;;;;1.30;0.98;;;27.10;38.90;;;;;;4981289;28;20031;-70
2023/09/08 10:14:59;;;;;;;2.25;1.40;;;27.10;39.10;;;;;;4966886;28;20461;-70
2023/09/08 10:17:38;;;;;;;2.22;1.15;;;27.20;39.20;;;;;;4966072;28;20475;-70
2023/09/08 10:20:10;;;;;;;4.05;1.38;;;27.10;39.30;;;;;;4975789;28;20129;-73
2023/09/08 10:22:47;;;;;;;0.80;0.80;;;27.10;39.50;;;;;;4990208;28;20074;-71
2023/09/08 10:25:20;;;;;;;3.63;1.52;;;27.10;39.90;;;;;;4989046;28;20031;-71
2023/09/08 10:27:58;;;;;;;4.10;1.67;;;27.20;44.60;;;;;;4989185;28;20034;-71
2023/09/08 10:31:02;;;;;;;2.30;1.30;;;27.40;42.90;;;;;;4988209;28;20121;-72
2023/09/08 10:33:36;;;;;;;3.92;1.55;;;27.40;43.10;;;;;;4973267;28;20038;-71
2023/09/08 10:36:10;;;;;;;3.28;1.48;;;27.30;42.70;;;;;;4947631;28;20228;-72
2023/09/08 10:38:59;;;;;;;3.53;1.38;;;27.40;43.80;;;;;;4951030;28;20062;-72
2023/09/08 10:41:42;;;;;;;7.75;1.60;;;27.60;43.30;;;;;;5029263;28;20523;-74
2023/09/08 10:44:08;;;;;;;5.70;1.33;;;27.60;40.70;;;;;;5068497;28;20461;-73
2023/09/08 10:46:37;;;;;;;3.75;1.30;;;27.70;40.10;;;;;;5054968;28;20033;-70
2023/09/08 10:49:06;;;;;;;1.08;0.90;;;27.70;43.00;;;;;;4967011;28;20372;-69
2023/09/08 10:51:37;;;;;;;1.85;1.13;;;27.70;43.10;;;;;;5005874;28;20408;-71
2023/09/08 10:54:22;;;;;;;3.78;1.60;;;27.80;43.50;;;;;;5051763;28;20045;-73
2023/09/08 10:57:25;;;;;;;1.92;1.33;;;27.80;43.00;;;;;;5067967;28;20063;-73
2023/09/08 11:00:15;;;;;;;1.15;1.05;;;27.70;42.30;;;;;;4977418;28;20057;-73
2023/09/08 11:03:07;;;;;;;3.95;1.80;;;27.80;42.10;;;;;;4960149;28;20141;-72
2023/09/08 11:06:02;;;;;;;1.58;0.82;;;27.70;42.00;;;;;;4968527;28;20031;-72
2023/09/08 11:08:53;;;;;;;3.13;1.27;;;27.70;41.90;;;;;;4969446;28;20554;-72
2023/09/08 11:12:08;;;;;;;3.63;1.60;;;27.80;42.50;;;;;;4969793;28;20133;-73
2023/09/08 11:15:08;;;;;;;3.17;1.40;;;27.80;42.40;;;;;;4981362;28;20042;-72
2023/09/08 11:17:52;;;;;;;3.88;1.30;;;27.80;44.40;;;;;;5059170;28;20040;-71
2023/09/08 11:20:29;;;;;;;3.25;1.17;;;27.90;43.60;;;;;;4957645;28;20050;-72
2023/09/08 11:23:27;;;;;;;3.78;1.30;;;27.80;41.00;;;;;;4970325;28;20049;-73
2023/09/08 11:28:53;;;;;;;1.50;1.17;;;28.00;39.90;;;;;;4969858;28;20034;-72
2023/09/08 11:31:28;;;;;;;4.60;1.50;;;27.90;39.10;;;;;;5014610;28;20041;-71
2023/09/08 11:33:59;;;;;;;3.25;1.20;;;27.90;39.20;;;;;;5051273;28;20063;-72
2023/09/08 11:36:33;;;;;;;3.33;1.48;;;27.80;39.60;;;;;;5034587;28;20033;-72
2023/09/08 11:39:06;;;;;;;1.33;1.00;;;27.80;39.50;;;;;;5056008;28;20037;-72
2023/09/08 11:41:40;;;;;;;1.98;1.00;;;27.70;39.00;;;;;;5058634;28;20048;-72
2023/09/08 11:44:18;;;;;;;2.25;1.10;;;27.70;39.90;;;;;;5051163;28;20099;-72
2023/09/08 11:46:51;;;;;;;1.52;1.00;;;27.90;39.90;;;;;;4996347;28;20042;-72
2023/09/08 11:49:40;;;;;;;1.48;0.88;;;27.90;40.50;;;;;;5036809;28;20524;-72
2023/09/08 11:52:09;;;;;;;2.08;1.00;;;27.90;41.60;;;;;;5065445;28;20029;-70
2023/09/08 11:54:48;;;;;;;2.17;1.15;;;27.80;41.70;;;;;;5006303;28;20031;-71
2023/09/08 11:57:18;;;;;;;1.67;1.10;;;27.70;41.80;;;;;;5003700;28;20136;-73
2023/09/08 11:59:54;;;;;;;1.50;1.10;;;27.70;42.00;;;;;;5016576;28;20900;-73
2023/09/08 12:02:21;;;;;;;4.97;1.33;;;27.70;42.30;;;;;;5027141;28;20084;-72
2023/09/08 12:05:22;;;;;;;1.30;1.02;;;27.90;42.40;;;;;;5057548;28;20145;-72
2023/09/08 12:07:51;;;;;;;2.03;1.20;;;27.70;42.30;;;;;;5022577;28;20754;-72
2023/09/08 12:10:18;;;;;;;1.73;1.15;;;27.70;42.90;;;;;;4945422;28;20135;-74
2023/09/08 12:12:55;;;;;;;1.65;1.10;;;27.70;43.00;;;;;;4976336;28;20485;-72
2023/09/08 12:15:44;;;;;;;2.90;1.05;;;27.70;43.10;;;;;;4951670;28;20035;-73
2023/09/08 12:18:12;;;;;;;1.95;0.75;;;27.70;43.30;;;;;;4967311;28;20047;-70
2023/09/08 12:20:42;;;;;;;1.08;0.93;;;27.70;43.30;;;;;;4964876;28;20074;-73
2023/09/08 12:23:22;;;;;;;1.27;1.08;;;27.60;43.30;;;;;;4989273;28;20501;-73
2023/09/08 12:25:50;;;;;;;1.08;0.82;;;27.70;44.00;;;;;;4968880;28;20205;-72
2023/09/08 12:28:20;;;;;;;1.45;1.05;;;27.60;44.40;;;;;;4995612;28;20050;-71
2023/09/08 12:30:50;;;;;;;1.83;1.40;;;27.60;44.10;;;;;;4968807;28;20042;-70
2023/09/08 12:33:19;;;;;;;1.10;0.90;;;27.70;44.10;;;;;;4949398;28;20131;-69
2023/09/08 12:35:48;;;;;;;1.17;1.13;;;27.60;43.90;;;;;;4949250;28;20043;-69
2023/09/08 12:38:14;;;;;;;1.15;1.00;;;27.70;43.80;;;;;;4965284;28;20116;-69
2023/09/08 12:40:40;;;;;;;1.38;0.95;;;27.60;43.70;;;;;;5005359;28;20468;-69
2023/09/08 12:43:21;;;;;;;1.10;0.98;;;27.60;43.70;;;;;;5059188;28;20437;-71
2023/09/08 12:45:48;;;;;;;1.17;1.05;;;27.50;43.50;;;;;;4971025;28;20058;-70
2023/09/08 12:48:26;;;;;;;3.08;0.80;;;27.60;43.50;;;;;;4970367;28;20448;-70
2023/09/08 12:50:53;;;;;;;0.98;0.90;;;27.50;43.40;;;;;;4971283;28;20075;-69
2023/09/08 12:53:20;;;;;;;1.75;0.90;;;27.80;43.50;;;;;;4971000;28;20033;-68
2023/09/08 12:55:47;;;;;;;1.65;1.25;;;27.70;43.50;;;;;;4970764;28;20054;-72
2023/09/08 12:58:17;;;;;;;0.88;0.80;;;27.60;43.50;;;;;;4969639;28;20054;-70
2023/09/08 13:00:44;;;;;;;1.10;1.00;;;27.60;43.50;;;;;;4971427;28;20039;-70
2023/09/08 13:03:12;;;;;;;1.90;1.00;;;27.60;43.60;;;;;;4970716;28;20700;-71
2023/09/08 13:05:49;;;;;;;1.42;1.05;;;27.70;43.70;;;;;;4971056;28;20634;-72
2023/09/08 13:08:16;;;;;;;5.18;1.02;;;27.60;43.80;;;;;;4971753;28;20403;-71
2023/09/08 13:10:42;;;;;;;1.20;1.10;;;27.60;43.80;;;;;;4970536;28;20067;-70